Time;durP1;ratioP1;P1;durP2;ratioP2;P2;SDS_P1;SDS_P2;PMS_P1;PMS_P2;Temp;Humidity;BMP_temperature;BMP_pressure;BME280_temperature;BME280_humidity;BME280_pressure;Samples;Min_cycle;Max_cycle;Signal;HPM_P1;HPM_P2
2022/01/28 00:00:13;;;;;;;19.85;5.88;;;8.70;99.90;;;8.91;76.06;102957.81;5071963;28;20351;-60
2022/01/28 00:02:53;;;;;;;20.15;6.07;;;8.80;99.90;;;8.65;76.51;102937.50;5072190;28;20083;-59
2022/01/28 00:05:24;;;;;;;19.40;5.95;;;8.70;99.90;;;8.89;76.28;102970.06;5070737;28;20147;-60
2022/01/28 00:07:54;;;;;;;26.88;5.90;;;8.70;99.90;;;8.77;76.75;102961.69;5071821;28;20841;-60
2022/01/28 00:10:25;;;;;;;22.48;6.18;;;8.70;99.90;;;8.83;77.13;102973.38;5071722;28;20444;-60
2022/01/28 00:15:43;;;;;;;25.00;6.35;;;8.70;99.90;;;8.80;78.26;102982.91;5059129;28;20192;-60
2022/01/28 00:38:06;;;;;;;26.45;7.28;;;8.50;99.90;;;8.60;84.17;102963.72;5070385;28;20059;-59
2022/01/28 00:40:35;;;;;;;29.10;7.07;;;8.40;99.90;;;8.77;83.94;102978.41;5071505;28;20102;-59
2022/01/28 00:43:05;;;;;;;23.17;6.28;;;8.60;99.90;;;8.62;84.13;102979.59;5071488;28;20130;-59
2022/01/28 00:45:33;;;;;;;19.83;6.20;;;8.50;99.90;;;8.70;84.59;102980.78;5071733;28;20052;-59
2022/01/28 00:48:02;;;;;;;27.35;6.80;;;8.50;99.90;;;8.61;84.28;102977.81;5071235;28;20131;-59
2022/01/28 00:50:30;;;;;;;29.65;7.28;;;8.50;99.90;;;8.62;84.79;102984.88;5071474;28;20140;-59
2022/01/28 00:53:00;;;;;;;24.35;5.82;;;8.50;99.90;;;8.81;85.21;102995.25;5071225;28;20120;-59
2022/01/28 00:55:28;;;;;;;24.13;6.30;;;8.60;99.90;;;8.66;85.36;103010.53;5071694;28;20079;-59
2022/01/28 00:57:56;;;;;;;28.90;6.43;;;8.50;99.90;;;8.70;85.25;103007.16;5071198;28;20072;-59
2022/01/28 01:00:25;;;;;;;36.58;6.78;;;8.50;99.90;;;8.81;85.19;103008.44;5071865;28;20045;-59
2022/01/28 01:02:53;;;;;;;31.40;6.38;;;8.60;99.90;;;8.74;85.71;103006.44;5075063;28;20211;-59
2022/01/28 01:05:22;;;;;;;26.13;6.30;;;8.60;99.90;;;8.83;85.69;103010.31;5074975;28;20136;-59
2022/01/28 01:07:51;;;;;;;26.60;6.22;;;8.60;99.90;;;8.82;85.64;103011.16;5075474;28;20343;-59
2022/01/28 01:10:21;;;;;;;25.88;5.75;;;8.70;99.90;;;8.78;86.29;103009.25;5075119;28;20611;-59
2022/01/28 01:12:49;;;;;;;27.48;5.97;;;8.60;99.90;;;8.86;86.36;103005.16;5075000;28;20410;-59
2022/01/28 01:15:21;;;;;;;29.10;6.15;;;8.70;99.90;;;8.81;86.68;103005.81;5075104;28;20063;-59
2022/01/28 01:17:58;;;;;;;43.75;7.80;;;8.60;99.90;;;8.89;86.82;103014.91;5075014;28;20040;-59
2022/01/28 01:23:21;;;;;;;23.77;6.80;;;8.70;99.90;;;8.81;87.02;103027.84;5074610;28;20068;-59
2022/01/28 01:25:55;;;;;;;26.95;6.47;;;8.60;99.90;;;8.87;86.75;103020.16;5075012;28;20060;-59
2022/01/28 01:28:29;;;;;;;25.65;6.15;;;8.60;99.90;;;8.87;86.94;103033.34;5074667;28;20102;-59
2022/01/28 01:30:59;;;;;;;36.22;6.80;;;8.60;99.90;;;8.92;86.59;103037.03;5074543;28;20048;-60
2022/01/28 01:33:29;;;;;;;25.42;6.63;;;8.60;99.90;;;8.80;86.90;103015.50;5074342;28;20439;-59
2022/01/28 01:36:00;;;;;;;28.75;6.70;;;8.70;99.90;;;8.97;86.86;103055.69;5074773;28;20044;-59
2022/01/28 01:38:33;;;;;;;30.98;7.20;;;8.70;99.90;;;9.06;86.90;103053.38;5073278;28;20098;-59
2022/01/28 01:41:05;;;;;;;30.88;6.57;;;8.80;99.90;;;9.04;87.08;103055.06;5074443;28;20052;-60
2022/01/28 01:43:45;;;;;;;29.95;7.20;;;8.80;99.90;;;8.98;87.04;103070.72;5074812;28;20123;-60
2022/01/28 01:46:24;;;;;;;32.00;6.97;;;8.70;99.90;;;8.95;87.10;103075.84;5074214;28;20086;-59
2022/01/28 01:54:24;;;;;;;24.90;6.20;;;8.90;99.90;;;9.03;87.16;103083.22;5074619;28;20424;-60
2022/01/28 01:56:55;;;;;;;28.40;6.75;;;8.80;99.90;;;9.18;86.71;103079.34;5074239;28;20391;-59
2022/01/28 01:59:23;;;;;;;29.17;6.00;;;8.90;99.90;;;9.12;87.53;103085.28;5089530;28;20086;-60
2022/01/28 02:01:52;;;;;;;40.75;7.43;;;8.90;99.90;;;8.99;88.15;103081.31;5073887;28;20044;-59
2022/01/28 02:04:21;;;;;;;32.28;6.28;;;8.80;99.90;;;8.94;87.94;103066.16;5074482;28;20050;-59
2022/01/28 02:06:50;;;;;;;32.33;7.47;;;8.80;99.90;;;9.02;88.50;103086.69;5073908;28;20056;-59
2022/01/28 02:09:18;;;;;;;24.63;6.38;;;8.80;99.90;;;9.05;88.52;103080.63;5073851;28;20139;-60
2022/01/28 02:11:46;;;;;;;28.50;6.30;;;8.90;99.90;;;8.93;89.12;103083.72;5072017;28;20052;-60
2022/01/28 02:14:16;;;;;;;29.08;6.60;;;8.80;99.90;;;8.84;89.02;103080.75;5073790;28;20114;-60
2022/01/28 02:16:45;;;;;;;21.23;5.70;;;8.70;99.90;;;8.83;88.75;103081.56;5074081;28;20049;-59
2022/01/28 02:19:13;;;;;;;27.77;6.88;;;8.70;99.90;;;8.47;88.29;102993.13;5073900;28;20098;-60
2022/01/28 02:21:46;;;;;;;26.10;7.07;;;8.80;99.90;;;8.75;88.42;103074.22;5073863;28;20044;-60
2022/01/28 02:24:18;;;;;;;25.63;7.05;;;8.60;99.90;;;8.71;88.70;103067.03;5074000;28;20049;-59
2022/01/28 02:26:47;;;;;;;27.15;7.30;;;8.60;99.90;;;8.76;89.05;103071.63;5074239;28;20462;-59
2022/01/28 02:29:26;;;;;;;30.35;7.13;;;8.60;99.90;;;8.72;88.72;103071.44;5073644;28;20051;-59
2022/01/28 02:31:56;;;;;;;30.58;7.78;;;8.50;99.90;;;8.73;89.13;103081.16;5074183;28;20048;-59
2022/01/28 02:34:25;;;;;;;29.35;7.32;;;8.60;99.90;;;8.81;88.94;103084.97;5072955;28;20059;-59
2022/01/28 02:36:56;;;;;;;31.25;7.38;;;8.60;99.90;;;8.66;89.96;103089.66;5073505;28;20452;-60
2022/01/28 02:39:24;;;;;;;40.20;7.85;;;8.50;99.90;;;8.70;90.20;103091.59;5073691;28;20052;-59
2022/01/28 02:42:00;;;;;;;36.55;8.05;;;8.50;99.90;;;8.76;89.67;103091.84;5073262;28;20389;-59
2022/01/28 02:44:43;;;;;;;24.52;7.38;;;8.60;99.90;;;8.70;90.07;103089.84;5073352;28;20136;-59
2022/01/28 02:47:14;;;;;;;31.20;7.30;;;8.50;99.90;;;8.53;89.90;103093.59;5073425;28;20106;-59
2022/01/28 02:49:44;;;;;;;34.92;8.15;;;8.50;99.90;;;8.64;90.46;103101.91;5073542;28;20101;-59
2022/01/28 02:52:23;;;;;;;38.22;8.30;;;8.40;99.90;;;8.53;90.71;103090.03;5073489;28;20414;-59
2022/01/28 02:54:51;;;;;;;29.17;7.47;;;8.40;99.90;;;8.49;90.56;103098.66;5073411;28;20098;-59
2022/01/28 02:57:25;;;;;;;30.92;8.52;;;8.30;99.90;;;8.53;90.56;103100.59;5072973;28;20551;-59
2022/01/28 02:59:54;;;;;;;30.02;7.30;;;8.40;99.90;;;8.28;90.23;103063.53;5073251;28;20055;-59
2022/01/28 03:02:22;;;;;;;32.65;8.65;;;8.40;99.90;;;8.59;89.66;103103.47;5072802;28;20076;-59
2022/01/28 03:05:14;;;;;;;25.40;6.72;;;8.40;99.90;;;8.55;89.36;103094.53;5072755;28;20048;-59
2022/01/28 03:07:44;;;;;;;30.50;6.82;;;8.40;99.90;;;8.50;89.01;103109.25;5073035;28;20048;-60
2022/01/28 03:10:30;;;;;;;27.57;7.57;;;8.40;99.90;;;8.58;88.50;103117.47;5072753;28;20075;-60
2022/01/28 03:13:15;;;;;;;27.73;6.97;;;8.40;99.90;;;8.71;87.37;103117.16;5072697;28;20060;-59
2022/01/28 03:15:51;;;;;;;25.15;6.30;;;8.50;99.90;;;8.80;85.92;103109.59;5072884;28;20063;-59
2022/01/28 03:18:23;;;;;;;27.25;6.05;;;8.70;99.90;;;8.73;85.21;103095.25;5072542;28;20067;-59
2022/01/28 03:21:06;;;;;;;22.05;5.75;;;8.70;99.90;;;8.61;83.64;103118.53;5072753;28;20437;-59
2022/01/28 03:23:38;;;;;;;29.35;7.30;;;8.60;99.90;;;8.75;83.75;103137.53;5072921;28;20044;-59
2022/01/28 03:26:06;;;;;;;24.73;6.35;;;8.60;99.90;;;8.92;82.39;103113.56;5072392;28;20055;-59
2022/01/28 03:28:35;;;;;;;23.23;5.75;;;8.80;99.90;;;8.76;81.59;103118.22;5072347;28;20115;-59
2022/01/28 03:31:03;;;;;;;23.90;6.50;;;8.70;99.90;;;8.84;80.87;103114.13;5072263;28;20040;-59
2022/01/28 03:33:32;;;;;;;32.72;5.85;;;8.70;99.90;;;8.50;80.32;103079.34;5072165;28;20553;-59
2022/01/28 03:36:02;;;;;;;24.50;5.88;;;8.60;99.90;;;8.96;79.53;103118.13;5072270;28;20044;-59
2022/01/28 03:38:31;;;;;;;17.98;5.68;;;8.70;99.90;;;9.12;78.34;103121.38;5072578;28;20486;-59
2022/01/28 03:41:01;;;;;;;21.23;5.78;;;8.90;99.90;;;9.19;77.83;103120.75;5072133;28;20094;-59
2022/01/28 03:43:29;;;;;;;18.90;5.60;;;9.00;99.90;;;9.25;76.99;103128.91;5072036;28;20425;-60
2022/01/28 03:45:58;;;;;;;24.33;5.60;;;9.10;99.90;;;8.96;76.28;103138.38;5072080;28;20070;-59
2022/01/28 03:48:27;;;;;;;18.45;5.55;;;9.00;99.90;;;8.76;76.66;103129.69;5072605;28;20044;-60
2022/01/28 03:50:55;;;;;;;17.33;5.28;;;8.70;99.90;;;8.76;76.76;103129.69;5072028;28;20073;-59
2022/01/28 03:53:23;;;;;;;23.92;7.30;;;8.70;99.90;;;8.77;76.50;103138.47;5072095;28;20366;-60
2022/01/28 03:55:53;;;;;;;22.25;6.03;;;8.60;99.90;;;8.82;76.28;103143.13;5072220;28;20474;-59
2022/01/28 03:58:23;;;;;;;18.60;5.10;;;8.60;99.90;;;8.88;75.82;103123.97;5072094;28;20102;-59
2022/01/28 04:00:53;;;;;;;20.93;5.63;;;8.80;99.90;;;9.07;74.93;103153.78;5072024;28;20808;-60
2022/01/28 04:03:40;;;;;;;15.07;5.47;;;8.90;99.90;;;8.95;74.55;103126.00;5072188;28;20295;-59
2022/01/28 04:11:40;;;;;;;20.20;5.13;;;8.80;99.90;;;8.95;73.29;103153.31;5071730;28;20044;-59
2022/01/28 04:14:14;;;;;;;19.17;6.32;;;8.90;99.90;;;8.72;74.08;103148.88;5072038;28;20052;-60
2022/01/28 04:19:28;;;;;;;20.08;6.18;;;8.60;99.90;;;8.85;73.65;103143.22;5072087;28;20049;-60
2022/01/28 04:21:57;;;;;;;19.35;6.35;;;8.70;99.90;;;8.81;74.00;103158.88;5071602;28;20068;-60
2022/01/28 04:24:25;;;;;;;15.48;5.10;;;8.60;99.90;;;9.00;72.86;103157.00;5071533;28;20436;-59
2022/01/28 04:26:54;;;;;;;16.25;4.78;;;8.80;99.90;;;9.06;72.44;103166.91;5071490;28;20123;-60
2022/01/28 04:29:23;;;;;;;12.88;5.25;;;8.90;99.90;;;8.75;72.95;103162.16;5071757;28;20048;-59
2022/01/28 04:31:52;;;;;;;19.50;5.00;;;8.70;99.90;;;8.62;73.82;103161.63;5071536;28;20139;-60
2022/01/28 04:34:22;;;;;;;30.80;6.07;;;8.50;99.90;;;8.75;73.68;103170.09;5071644;28;20052;-59
2022/01/28 04:36:59;;;;;;;21.73;5.38;;;8.50;99.90;;;8.51;75.04;103157.66;5070932;28;20090;-59
2022/01/28 04:39:35;;;;;;;20.35;5.40;;;8.40;99.90;;;8.63;75.75;103166.06;5071677;28;20105;-60
2022/01/28 04:42:13;;;;;;;23.52;6.05;;;8.40;99.90;;;8.62;75.63;103161.63;5071717;28;20041;-60
2022/01/28 04:44:53;;;;;;;23.40;6.32;;;8.40;99.90;;;8.65;76.45;103174.94;5071938;28;20052;-59
2022/01/28 04:47:29;;;;;;;24.55;5.80;;;8.40;99.90;;;8.50;76.20;103146.19;5071902;28;20450;-59
2022/01/28 04:50:06;;;;;;;22.95;5.88;;;8.40;99.90;;;8.63;77.36;103174.84;5071459;28;20048;-60
2022/01/28 04:55:53;;;;;;;31.35;6.85;;;8.40;99.90;;;8.69;80.60;103174.22;5029080;28;20196;-60
2022/01/28 04:58:35;;;;;;;37.22;8.65;;;8.50;99.90;;;8.65;82.87;103178.47;5028934;28;20056;-60
2022/01/28 05:04:02;;;;;;;30.58;7.75;;;8.40;99.90;;;8.68;84.98;103177.69;5066711;28;20071;-60
2022/01/28 05:07:07;;;;;;;40.10;8.50;;;8.40;99.90;;;8.65;86.48;103180.22;5071260;28;20068;-59
2022/01/28 05:26:36;;;;;;;37.42;7.22;;;8.50;99.90;;;8.55;89.03;103175.41;5071295;28;20064;-59
2022/01/28 05:29:05;;;;;;;41.15;7.97;;;8.40;99.90;;;8.86;88.43;103173.16;5071241;28;20048;-59
2022/01/28 05:31:33;;;;;;;23.50;6.93;;;8.60;99.90;;;9.02;87.47;103175.53;5070855;28;20036;-59
2022/01/28 05:34:03;;;;;;;31.77;7.85;;;8.70;99.90;;;9.18;85.88;103187.59;5071376;28;20052;-59
2022/01/28 05:36:31;;;;;;;33.37;7.63;;;8.90;99.90;;;9.00;85.92;103193.97;5070852;28;20139;-59
2022/01/28 05:39:00;;;;;;;24.35;7.95;;;8.80;99.90;;;8.90;86.08;103197.06;5070745;28;20055;-59
2022/01/28 05:41:28;;;;;;;27.48;6.50;;;8.70;99.90;;;8.93;85.38;103198.94;5070931;28;20048;-59
2022/01/28 05:43:57;;;;;;;30.23;7.65;;;8.70;99.90;;;9.07;85.41;103198.66;5070603;28;20040;-59
2022/01/28 05:46:28;;;;;;;33.88;7.88;;;8.80;99.90;;;9.16;84.77;103198.09;5070667;28;20041;-59
2022/01/28 05:48:57;;;;;;;;;;;8.90;99.90;;;9.21;84.01;103195.66;5074149;28;20131;-59
2022/01/28 05:51:27;;;;;;;27.15;6.93;;;9.00;99.90;;;9.01;83.56;103201.06;5074435;28;19920;-59
2022/01/28 05:53:57;;;;;;;28.38;7.30;;;8.80;99.90;;;8.97;83.64;103209.69;5074779;28;20044;-59
2022/01/28 05:56:26;;;;;;;27.92;6.93;;;8.70;99.90;;;9.06;83.31;103177.47;5074239;28;20048;-59
2022/01/28 05:58:55;;;;;;;20.88;6.80;;;8.90;99.90;;;9.27;82.82;103204.69;5074297;28;20067;-59
2022/01/28 06:01:24;;;;;;;26.33;7.05;;;9.00;99.90;;;9.24;81.65;103211.59;5073979;28;20044;-59
2022/01/28 06:03:53;;;;;;;20.67;6.68;;;9.00;99.90;;;8.70;81.42;103144.34;5073804;28;20044;-59
2022/01/28 06:06:23;;;;;;;24.73;6.40;;;8.90;99.90;;;9.24;80.97;103233.63;5072735;28;20438;-59
2022/01/28 06:08:55;;;;;;;25.45;6.88;;;9.00;99.90;;;9.04;80.92;103238.13;5074176;28;20040;-59
2022/01/28 06:11:25;;;;;;;27.02;6.50;;;8.90;99.90;;;8.10;80.79;103112.00;5074108;28;20048;-59
2022/01/28 06:13:53;;;;;;;21.83;6.53;;;8.70;99.90;;;9.04;81.08;103231.94;5073664;28;20082;-59
2022/01/28 06:16:22;;;;;;;27.35;6.80;;;8.80;99.90;;;8.82;80.72;103179.16;5072630;28;20399;-59
2022/01/28 06:18:50;;;;;;;22.80;6.47;;;8.90;99.90;;;9.07;80.86;103234.72;5072588;28;20044;-59
2022/01/28 06:21:20;;;;;;;21.15;6.30;;;8.80;99.90;;;8.92;80.07;103240.25;5074011;28;20041;-59
2022/01/28 06:23:51;;;;;;;23.80;6.20;;;8.70;99.90;;;8.77;80.22;103241.38;5073983;28;20055;-59
2022/01/28 06:26:21;;;;;;;28.52;6.05;;;8.60;99.90;;;8.71;80.25;103243.81;5072521;28;20076;-59
2022/01/28 06:28:50;;;;;;;17.73;6.73;;;8.50;99.90;;;8.85;80.34;103251.44;5074069;28;20090;-59
2022/01/28 06:31:18;;;;;;;18.30;6.25;;;8.50;99.90;;;8.75;79.90;103253.66;5073479;28;20333;-59
2022/01/28 06:33:50;;;;;;;22.77;6.78;;;8.50;99.90;;;8.76;79.88;103258.97;5073647;28;20047;-59
2022/01/28 06:36:20;;;;;;;20.90;6.57;;;8.50;99.90;;;8.58;79.93;103233.56;5073480;28;20115;-59
2022/01/28 06:38:49;;;;;;;21.77;5.88;;;8.40;99.90;;;8.81;79.36;103257.41;5073359;28;20045;-59
2022/01/28 06:41:18;;;;;;;28.38;6.53;;;8.50;99.90;;;8.87;79.20;103270.88;5073265;28;20068;-59
2022/01/28 06:43:47;;;;;;;25.08;6.00;;;8.60;99.90;;;8.87;78.63;103276.16;5073734;28;20118;-59
2022/01/28 06:46:16;;;;;;;25.15;6.68;;;8.60;99.90;;;8.84;78.04;103280.41;5073252;28;20469;-59
2022/01/28 06:48:44;;;;;;;24.50;6.45;;;8.60;99.90;;;8.75;77.83;103264.19;5072080;28;20451;-59
2022/01/28 06:51:13;;;;;;;27.50;6.95;;;8.60;99.90;;;8.93;78.61;103281.69;5072128;28;20106;-59
2022/01/28 06:53:41;;;;;;;17.00;5.75;;;8.60;99.90;;;8.98;77.86;103289.78;5072118;28;20080;-59
2022/01/28 06:56:09;;;;;;;18.10;6.07;;;8.70;99.90;;;8.58;77.51;103223.91;5073803;28;20451;-59
2022/01/28 06:58:38;;;;;;;20.92;6.40;;;8.70;99.90;;;9.05;77.22;103302.41;5072751;28;20115;-59
2022/01/28 07:01:09;;;;;;;21.52;6.10;;;8.80;99.90;;;8.97;77.50;103302.09;5072962;28;20490;-59
2022/01/28 07:03:38;;;;;;;22.35;6.50;;;8.70;99.90;;;9.00;77.66;103309.25;5072901;28;20052;-59
2022/01/28 07:06:06;;;;;;;21.45;6.22;;;8.70;99.90;;;9.04;77.34;103327.88;5072846;28;20040;-59
2022/01/28 07:08:35;;;;;;;15.18;5.60;;;8.80;99.90;;;9.01;77.17;103355.91;5072704;28;20498;-59
2022/01/28 07:11:03;;;;;;;27.73;6.85;;;8.80;99.90;;;8.99;77.10;103326.81;5071578;28;20055;-59
2022/01/28 07:13:31;;;;;;;17.90;5.80;;;8.70;99.90;;;8.50;75.45;103332.56;5072412;28;20114;-59
2022/01/28 07:16:00;;;;;;;18.23;6.55;;;8.30;99.90;;;8.47;75.85;103330.72;5072964;28;20049;-59
2022/01/28 07:18:30;;;;;;;26.27;6.80;;;8.30;99.90;;;8.04;77.39;103330.50;5072563;28;20032;-59
2022/01/28 07:20:58;;;;;;;26.80;6.63;;;8.00;99.90;;;7.84;78.64;103326.03;5072514;28;20052;-59
2022/01/28 07:23:26;;;;;;;17.75;6.10;;;7.80;99.90;;;7.71;79.11;103320.13;5072328;28;20072;-59
2022/01/28 07:25:55;;;;;;;25.75;7.30;;;7.70;99.90;;;7.85;79.83;103338.41;5072441;28;20098;-59
2022/01/28 07:28:25;;;;;;;26.33;6.43;;;7.60;99.90;;;7.90;80.31;103330.69;5072336;28;20440;-59
2022/01/28 07:30:54;;;;;;;18.23;5.60;;;7.70;99.90;;;7.95;80.12;103338.00;5072405;28;20041;-59
2022/01/28 07:33:22;;;;;;;24.75;6.57;;;7.70;99.90;;;8.06;80.35;103338.47;5072258;28;20053;-59
2022/01/28 07:35:52;;;;;;;22.20;6.50;;;7.80;99.90;;;8.12;79.99;103344.03;5072511;28;20098;-59
2022/01/28 07:38:21;;;;;;;16.33;6.33;;;7.90;99.90;;;8.16;79.75;103340.69;5070909;28;20052;-59
2022/01/28 07:40:49;;;;;;;30.63;7.32;;;7.90;99.90;;;8.17;79.89;103340.75;5071889;28;20099;-59
2022/01/28 07:43:17;;;;;;;21.63;6.90;;;7.90;99.90;;;8.25;80.03;103343.78;5072010;28;20040;-59
2022/01/28 07:45:46;;;;;;;18.85;6.20;;;8.00;99.90;;;8.34;79.40;103349.47;5071961;28;20054;-59
2022/01/28 07:48:14;;;;;;;21.73;6.45;;;8.00;99.90;;;8.42;79.27;103353.31;5072214;28;20066;-59
2022/01/28 07:50:43;;;;;;;20.60;6.30;;;8.20;99.90;;;8.71;78.91;103349.34;5072166;28;20040;-59
2022/01/28 07:53:16;;;;;;;22.50;6.05;;;8.40;99.90;;;8.86;78.11;103349.97;5072086;28;20501;-59
2022/01/28 07:55:45;;;;;;;24.95;6.65;;;8.60;99.90;;;8.94;77.91;103352.09;5072361;28;20536;-59
2022/01/28 07:58:13;;;;;;;17.33;6.05;;;8.70;99.90;;;9.08;77.10;103355.31;5071921;28;20049;-59
2022/01/28 08:00:42;;;;;;;20.27;6.20;;;8.80;99.90;;;9.33;76.89;103365.16;5072244;28;20061;-59
2022/01/28 08:03:10;;;;;;;22.08;6.32;;;9.10;99.90;;;9.58;76.26;103368.81;5072165;28;20052;-59
2022/01/28 08:05:39;;;;;;;19.58;6.18;;;9.30;99.90;;;9.77;75.54;103371.38;5072148;28;20040;-59
2022/01/28 08:08:09;;;;;;;36.25;6.75;;;9.50;99.90;;;10.06;75.19;103375.13;5071977;28;20060;-58
2022/01/28 08:10:39;;;;;;;20.63;5.70;;;9.90;99.90;;;10.39;74.20;103373.78;5070068;28;20412;-59
2022/01/28 08:13:08;;;;;;;30.00;6.70;;;10.20;99.90;;;10.58;72.89;103377.97;5071991;28;20656;-58
2022/01/28 08:15:39;;;;;;;23.13;6.88;;;10.40;99.90;;;10.90;71.67;103385.28;5072139;28;20279;-58
2022/01/28 08:18:08;;;;;;;20.33;6.38;;;10.70;99.90;;;11.20;70.84;103383.69;5072325;28;20067;-59
2022/01/28 08:20:37;;;;;;;20.63;6.05;;;11.00;99.90;;;11.45;70.41;103390.69;5071593;28;20048;-58
2022/01/28 08:23:06;;;;;;;17.95;6.30;;;11.40;99.90;;;11.65;69.44;103397.53;5071572;28;20064;-59
2022/01/28 08:25:36;;;;;;;34.15;7.97;;;11.50;99.90;;;11.83;69.54;103394.59;5071545;28;20084;-59
2022/01/28 08:28:07;;;;;;;17.83;5.78;;;11.70;99.90;;;12.25;68.97;103404.72;5071453;28;20046;-58
2022/01/28 08:30:38;;;;;;;19.23;6.05;;;12.10;99.90;;;12.47;68.02;103408.91;5072124;28;20048;-58
2022/01/28 08:33:07;;;;;;;26.17;5.80;;;12.40;99.90;;;12.77;67.19;103401.81;5071673;28;20040;-58
2022/01/28 08:35:38;;;;;;;19.63;5.90;;;12.70;99.90;;;13.04;66.06;103405.25;5071338;28;20405;-58
2022/01/28 08:38:14;;;;;;;20.55;6.78;;;13.00;99.90;;;13.27;65.43;103403.16;5071875;28;20040;-59
2022/01/28 08:40:44;;;;;;;21.80;5.47;;;13.20;99.90;;;13.56;64.86;103420.72;5071682;28;20053;-60
2022/01/28 08:43:14;;;;;;;24.08;6.57;;;13.50;99.90;;;13.69;64.04;103395.31;5071400;28;20463;-59
2022/01/28 08:45:42;;;;;;;18.53;5.63;;;13.80;99.90;;;14.09;62.81;103420.19;5071555;28;20072;-59
2022/01/28 08:48:11;;;;;;;19.50;6.57;;;14.10;99.90;;;14.37;62.11;103419.06;5070000;28;20226;-60
2022/01/28 08:50:40;;;;;;;19.83;6.50;;;14.30;99.90;;;14.63;61.79;103409.84;5071197;28;20064;-60
2022/01/28 08:53:10;;;;;;;21.98;6.57;;;14.60;99.90;;;14.86;61.05;103392.53;5071129;28;20043;-60
2022/01/28 08:55:39;;;;;;;18.05;6.40;;;14.90;99.90;;;15.17;60.23;103415.31;5070004;28;20174;-60
2022/01/28 08:58:11;;;;;;;17.75;5.10;;;15.10;99.90;;;15.33;59.03;103415.56;5071003;28;20047;-59
2022/01/28 09:00:45;;;;;;;25.90;6.18;;;15.30;99.90;;;15.41;58.83;103414.81;5071195;28;20121;-60
2022/01/28 09:03:16;;;;;;;22.58;5.93;;;15.30;99.90;;;15.72;58.30;103426.03;5071074;28;20045;-60
2022/01/28 09:05:45;;;;;;;29.05;6.80;;;15.60;99.90;;;16.05;57.36;103421.19;5071119;28;20047;-61
2022/01/28 09:08:14;;;;;;;19.77;6.07;;;15.90;99.90;;;16.39;56.50;103441.25;5071552;28;20052;-61
2022/01/28 09:10:46;;;;;;;19.85;5.65;;;16.30;99.90;;;16.62;55.84;103434.44;5070991;28;20146;-62
2022/01/28 09:13:24;;;;;;;17.13;5.70;;;16.60;99.90;;;16.77;54.91;103429.25;5070706;28;20151;-61
2022/01/28 09:15:57;;;;;;;14.63;5.47;;;16.80;99.90;;;16.93;54.54;103436.59;5071029;28;20040;-61
2022/01/28 09:18:26;;;;;;;15.60;5.65;;;16.90;99.90;;;17.08;54.23;103431.38;5071236;28;20114;-61
2022/01/28 09:20:55;;;;;;;18.27;5.93;;;17.10;99.90;;;17.32;53.59;103446.78;5070905;28;20076;-61
2022/01/28 09:23:23;;;;;;;18.75;6.57;;;17.30;99.90;;;17.56;53.08;103454.13;5074999;28;20098;-62
2022/01/28 09:25:52;;;;;;;19.02;6.63;;;17.50;99.90;;;17.56;52.70;103454.13;5074542;28;20463;-64
2022/01/28 09:28:20;;;;;;;16.25;5.22;;;17.50;99.90;;;17.41;52.97;103428.13;5074780;28;20072;-62
2022/01/28 09:30:49;;;;;;;17.05;5.93;;;17.50;99.90;;;17.64;52.48;103468.47;5074332;28;20413;-62
2022/01/28 09:33:19;;;;;;;16.23;5.95;;;17.60;99.90;;;17.74;52.50;103462.31;5073219;28;20102;-61
2022/01/28 09:35:48;;;;;;;16.08;6.22;;;17.70;99.90;;;17.65;52.48;103463.13;5074768;28;20048;-61
2022/01/28 09:38:17;;;;;;;21.08;6.75;;;17.60;99.90;;;17.35;52.27;103461.94;5074748;28;20048;-63
2022/01/28 09:40:46;;;;;;;16.85;6.13;;;17.30;99.90;;;17.27;52.76;103455.59;5074410;28;20080;-61
2022/01/28 09:43:14;;;;;;;22.35;6.45;;;17.00;99.90;;;17.53;52.91;103451.44;5073325;28;20064;-64
2022/01/28 09:45:47;;;;;;;15.98;5.18;;;17.30;99.90;;;17.73;51.26;103457.84;5074440;28;20049;-63
2022/01/28 09:48:20;;;;;;;19.90;6.00;;;17.50;99.90;;;17.06;51.21;103473.25;5074383;28;20067;-63
2022/01/28 09:50:48;;;;;;;20.08;6.22;;;17.10;99.90;;;16.72;51.58;103454.16;5074300;28;20182;-64
2022/01/28 09:53:19;;;;;;;19.45;5.93;;;16.60;99.90;;;16.72;52.47;103454.16;5074770;28;20135;-63
2022/01/28 09:55:47;;;;;;;16.88;6.38;;;16.50;99.90;;;16.49;52.79;103445.84;5074250;28;20040;-63
2022/01/28 09:58:16;;;;;;;19.17;5.88;;;16.30;99.90;;;16.30;53.08;103448.25;5074100;28;20040;-63
2022/01/28 10:00:45;;;;;;;18.88;5.88;;;16.10;99.90;;;16.38;53.38;103447.44;5074230;28;20089;-63
2022/01/28 10:03:16;;;;;;;17.08;5.60;;;16.10;99.90;;;16.27;53.83;103449.09;5074154;28;20052;-63
2022/01/28 10:05:49;;;;;;;;;;;16.00;99.90;;;16.20;54.45;103441.88;5074644;28;20082;-63
2022/01/28 10:08:20;;;;;;;19.98;5.35;;;16.00;99.90;;;16.18;54.15;103448.97;5074306;28;19933;-63
2022/01/28 10:10:58;;;;;;;19.77;6.18;;;16.00;99.90;;;16.04;54.66;103443.44;5074236;28;20072;-63
2022/01/28 10:13:34;;;;;;;19.77;5.63;;;15.80;99.90;;;16.03;53.80;103441.63;5073784;28;20060;-63
2022/01/28 10:16:07;;;;;;;14.18;5.45;;;15.80;99.90;;;15.94;54.64;103452.19;5073998;28;20070;-62
2022/01/28 10:18:45;;;;;;;20.70;6.07;;;15.70;99.90;;;16.03;54.65;103446.97;5073963;28;20041;-63
2022/01/28 10:21:31;;;;;;;19.67;5.43;;;15.80;99.90;;;15.74;53.90;103450.97;5073845;28;20128;-62
2022/01/28 10:24:10;;;;;;;14.38;5.45;;;15.60;99.90;;;15.40;53.98;103456.59;5073861;28;20053;-63
2022/01/28 10:26:42;;;;;;;16.20;5.50;;;15.20;99.90;;;14.95;54.71;103386.44;5074053;28;20058;-62
2022/01/28 10:29:13;;;;;;;16.58;5.10;;;15.10;99.90;;;15.80;55.06;103461.75;5073533;28;20059;-62
2022/01/28 10:31:51;;;;;;;14.20;4.72;;;15.50;99.90;;;16.11;54.71;103468.44;5073573;28;20041;-62
2022/01/28 10:34:26;;;;;;;17.05;5.47;;;15.80;99.90;;;16.26;53.99;103444.59;5072586;28;20044;-63
2022/01/28 10:37:20;;;;;;;17.90;5.50;;;16.20;99.90;;;16.49;52.63;103437.81;5073487;28;20070;-62
2022/01/28 10:39:52;;;;;;;20.88;5.95;;;16.40;99.90;;;16.91;53.03;103457.06;5073363;28;20051;-62
2022/01/28 10:42:36;;;;;;;14.68;5.70;;;16.60;99.90;;;17.10;51.98;103459.03;5072079;28;20045;-62
2022/01/28 10:45:11;;;;;;;18.38;5.85;;;16.90;99.90;;;16.64;51.78;103467.44;5073212;28;20053;-62
2022/01/28 10:47:42;;;;;;;13.95;5.25;;;16.60;99.90;;;16.78;50.89;103460.44;5073278;28;20048;-62
2022/01/28 10:50:23;;;;;;;17.20;5.80;;;16.60;99.90;;;17.03;52.34;103459.84;5073179;28;20048;-62
2022/01/28 10:53:07;;;;;;;17.27;4.95;;;16.70;99.90;;;17.26;51.21;103453.84;5073218;28;20125;-62
2022/01/28 10:55:37;;;;;;;15.07;5.40;;;17.00;99.90;;;17.33;50.82;103453.91;5073322;28;20040;-62
2022/01/28 10:58:09;;;;;;;16.13;5.30;;;17.10;99.90;;;17.54;50.60;103453.22;5073540;28;20044;-64
2022/01/28 11:00:41;;;;;;;17.80;6.20;;;17.30;99.90;;;17.50;50.62;103454.09;5073176;28;20070;-61
2022/01/28 11:03:11;;;;;;;19.25;7.20;;;17.30;99.90;;;17.48;49.78;103446.03;5072985;28;20044;-62
2022/01/28 11:05:43;;;;;;;18.30;6.60;;;17.30;99.90;;;17.29;49.67;103445.81;5072924;28;20079;-61
2022/01/28 11:08:15;;;;;;;14.02;6.15;;;17.10;99.90;;;17.02;50.43;103425.97;5073021;28;20117;-62
2022/01/28 11:10:44;;;;;;;16.65;6.65;;;16.90;99.90;;;17.08;49.90;103444.75;5072947;28;20061;-61
2022/01/28 11:13:13;;;;;;;17.30;6.18;;;16.90;99.90;;;17.28;49.96;103452.06;5071819;28;20139;-61
2022/01/28 11:15:42;;;;;;;26.00;7.50;;;17.00;99.90;;;17.40;50.26;103441.50;5072791;28;20108;-61
2022/01/28 11:18:11;;;;;;;18.05;6.90;;;17.10;99.90;;;17.30;50.29;103443.19;5072606;28;20473;-61
2022/01/28 11:20:45;;;;;;;25.35;7.65;;;17.00;99.90;;;17.25;50.52;103436.88;5072784;28;20052;-61
2022/01/28 11:23:29;;;;;;;17.90;6.53;;;17.00;99.90;;;17.24;51.22;103436.88;5072433;28;20518;-62
2022/01/28 11:26:16;;;;;;;15.38;6.50;;;16.90;99.90;;;17.10;51.34;103424.28;5072419;28;20543;-62
2022/01/28 11:28:50;;;;;;;16.50;6.95;;;16.80;99.90;;;17.05;50.92;103417.97;5072394;28;20057;-64
2022/01/28 11:31:44;;;;;;;22.15;7.93;;;16.80;99.90;;;17.13;51.13;103396.63;5072502;28;20074;-62
2022/01/28 11:34:19;;;;;;;18.92;6.60;;;16.90;99.90;;;17.35;51.59;103414.69;5072255;28;20040;-61